Time;durP1;ratioP1;P1;durP2;ratioP2;P2;SDS_P1;SDS_P2;PMS_P1;PMS_P2;Temp;Humidity;BMP_temperature;BMP_pressure;BME280_temperature;BME280_humidity;BME280_pressure;Samples;Min_cycle;Max_cycle;Signal;HPM_P1;HPM_P2
2022/06/25 00:00:56;;;;;;;8.32;4.00;;;;;;;23.58;93.85;100171.97;5065891;28;20029;-63
2022/06/25 00:03:42;;;;;;;8.20;3.70;;;;;;;23.58;94.05;100166.47;5057214;28;20044;-62
2022/06/25 00:06:08;;;;;;;7.32;3.70;;;;;;;23.27;95.26;100169.25;5020429;28;21324;-63
2022/06/25 00:08:55;;;;;;;6.25;3.67;;;;;;;23.11;96.44;100172.28;5022779;28;20041;-64
2022/06/25 00:14:10;;;;;;;8.93;3.90;;;;;;;22.83;98.67;100171.38;4947731;29;20086;-64
2022/06/25 00:16:36;;;;;;;9.27;4.25;;;;;;;22.94;98.01;100177.22;4934021;29;20058;-64
2022/06/25 00:19:03;;;;;;;9.65;4.18;;;;;;;22.94;97.88;100185.47;4925696;29;20107;-64
2022/06/25 00:21:29;;;;;;;7.20;3.95;;;;;;;22.93;97.64;100178.44;4931016;29;20102;-64
2022/06/25 00:23:55;;;;;;;7.13;3.95;;;;;;;23.04;97.06;100183.53;4935488;29;20047;-63
2022/06/25 00:26:21;;;;;;;6.85;3.85;;;;;;;23.17;96.26;100197.97;4935775;29;20039;-62
2022/06/25 00:28:47;;;;;;;9.00;3.90;;;;;;;22.93;96.99;100202.41;4929401;29;20050;-64
2022/06/25 00:31:12;;;;;;;7.88;3.97;;;;;;;22.77;98.29;100210.84;4931606;29;20052;-64
2022/06/25 00:33:38;;;;;;;7.20;4.22;;;;;;;22.94;97.85;100201.16;4930405;29;20223;-64
2022/06/25 00:36:04;;;;;;;7.93;4.25;;;;;;;23.11;96.75;100205.25;4931916;29;20051;-63
2022/06/25 00:38:29;;;;;;;5.93;3.72;;;;;;;23.27;95.35;100213.25;4931539;29;20493;-64
2022/06/25 00:40:55;;;;;;;9.35;4.50;;;;;;;23.32;95.02;100214.69;4916084;29;20031;-62
2022/06/25 00:43:20;;;;;;;8.93;4.07;;;;;;;23.33;95.39;100214.22;4963457;28;20082;-61
2022/06/25 00:45:46;;;;;;;8.63;4.30;;;;;;;23.30;95.08;100215.88;4978373;28;20038;-64
2022/06/25 00:48:11;;;;;;;6.57;3.63;;;;;;;23.15;95.87;100228.63;5013251;28;20049;-64
2022/06/25 00:50:37;;;;;;;8.35;4.40;;;;;;;22.64;98.55;100221.91;5057177;28;20039;-62
2022/06/25 00:53:04;;;;;;;7.95;3.92;;;;;;;22.70;98.69;100222.88;5057635;28;20139;-64
2022/06/25 00:55:30;;;;;;;6.28;3.65;;;;;;;22.86;97.84;100230.88;5064908;28;20030;-63
2022/06/25 00:58:00;;;;;;;6.78;3.45;;;;;;;23.03;97.14;100223.22;5065245;28;20032;-64
2022/06/25 01:00:26;;;;;;;9.68;4.45;;;;;;;23.16;96.29;100232.13;5057364;28;20043;-62
2022/06/25 01:02:53;;;;;;;7.35;3.72;;;;;;;23.22;96.00;100217.38;5056159;28;20114;-64
2022/06/25 01:05:19;;;;;;;6.85;3.28;;;;;;;23.18;95.98;100229.69;5059884;28;20138;-64
2022/06/25 01:07:48;;;;;;;6.72;3.45;;;;;;;23.16;96.09;100229.38;5058774;28;20032;-63
2022/06/25 01:10:14;;;;;;;8.10;4.20;;;;;;;23.14;96.11;100231.81;5069554;28;20040;-62
2022/06/25 01:12:40;;;;;;;9.00;4.28;;;;;;;23.14;96.03;100235.34;5060287;28;20050;-64
2022/06/25 01:15:16;;;;;;;6.20;3.90;;;;;;;23.21;95.80;100239.78;5065838;28;20024;-64
2022/06/25 01:17:51;;;;;;;6.57;3.65;;;;;;;23.23;95.81;100240.88;5068566;28;20028;-64
2022/06/25 01:20:25;;;;;;;9.18;4.13;;;;;;;23.26;95.33;100242.72;5084374;28;20481;-63
2022/06/25 01:22:51;;;;;;;6.70;3.92;;;;;;;23.24;95.58;100241.66;5061877;28;20166;-64
2022/06/25 01:25:16;;;;;;;7.50;4.45;;;;;;;23.28;94.84;100256.78;5058007;28;20541;-64
2022/06/25 01:27:43;;;;;;;10.65;4.07;;;;;;;23.25;94.92;100256.91;5039536;28;20054;-64
2022/06/25 01:30:10;;;;;;;10.15;4.65;;;;;;;22.98;95.48;100256.75;5066714;28;20424;-63
2022/06/25 01:32:36;;;;;;;9.43;4.63;;;;;;;22.70;97.52;100255.81;5057357;28;20033;-64
2022/06/25 01:35:03;;;;;;;8.27;4.20;;;;;;;22.72;97.38;100250.66;5061585;28;20021;-64
2022/06/25 01:37:28;;;;;;;8.88;4.78;;;;;;;22.75;97.27;100255.25;5051352;28;20040;-63
2022/06/25 01:39:55;;;;;;;10.32;5.40;;;;;;;22.56;98.13;100261.00;5051655;28;20439;-64
2022/06/25 01:45:09;;;;;;;8.75;4.88;;;;;;;22.66;97.68;100255.19;5057360;28;20036;-64
2022/06/25 01:47:35;;;;;;;10.05;4.60;;;;;;;22.67;97.56;100262.19;5056068;28;20043;-64
2022/06/25 01:50:01;;;;;;;10.82;5.07;;;;;;;22.76;97.04;100269.75;5055597;28;20116;-63
2022/06/25 01:52:27;;;;;;;11.98;6.15;;;;;;;22.75;96.95;100266.22;5063859;28;20488;-62
2022/06/25 01:54:54;;;;;;;12.80;6.03;;;;;;;22.72;97.07;100266.34;5049565;28;20112;-62
2022/06/25 01:57:20;;;;;;;11.05;5.45;;;;;;;22.71;96.79;100267.56;5039950;28;20045;-60
2022/06/25 01:59:48;;;;;;;10.43;5.90;;;;;;;22.77;96.38;100269.28;5050498;28;20024;-56
2022/06/25 02:02:14;;;;;;;10.50;5.60;;;;;;;22.72;96.67;100267.13;5061127;28;20037;-61
2022/06/25 02:04:40;;;;;;;10.82;5.05;;;;;;;22.55;96.93;100273.22;5052786;28;20087;-62
2022/06/25 02:07:05;;;;;;;14.48;6.85;;;;;;;22.36;97.34;100272.28;5051780;28;20028;-62
2022/06/25 02:09:35;;;;;;;13.38;5.25;;;;;;;22.21;98.07;100269.25;5064231;28;20431;-61
2022/06/25 02:12:00;;;;;;;12.32;5.57;;;;;;;22.28;97.80;100260.00;5063855;28;20399;-62
2022/06/25 02:14:26;;;;;;;11.45;5.50;;;;;;;22.38;97.61;100258.88;5052437;28;20031;-63
2022/06/25 02:16:53;;;;;;;12.75;6.15;;;;;;;22.09;98.67;100256.34;5062112;28;20028;-62
2022/06/25 02:19:18;;;;;;;13.10;6.18;;;;;;;21.67;100.00;100256.91;5064737;28;20447;-62
2022/06/25 02:21:44;;;;;;;10.35;5.57;;;;;;;21.33;100.00;100263.81;5053916;28;20029;-62
2022/06/25 02:24:09;;;;;;;14.18;6.47;;;;;;;21.28;100.00;100260.84;5041140;28;20032;-60
2022/06/25 02:26:35;;;;;;;13.15;5.35;;;;;;;21.15;100.00;100263.59;5066290;28;20056;-62
2022/06/25 02:29:00;;;;;;;10.25;5.35;;;;;;;21.23;100.00;100264.13;5059364;28;20089;-61
2022/06/25 02:31:29;;;;;;;13.15;6.53;;;;;;;21.39;100.00;100275.00;5053310;28;20040;-62
2022/06/25 02:33:54;;;;;;;11.20;5.55;;;;;;;21.50;100.00;100267.97;5055380;28;20400;-61
2022/06/25 02:36:21;;;;;;;10.55;5.00;;;;;;;21.65;100.00;100276.53;5055399;28;20113;-59
2022/06/25 02:38:46;;;;;;;11.07;5.30;;;;;;;21.79;100.00;100278.06;5059001;28;20028;-62
2022/06/25 02:41:13;;;;;;;12.32;5.93;;;;;;;21.71;100.00;100272.06;5061891;28;20036;-62
2022/06/25 02:43:38;;;;;;;14.75;6.35;;;;;;;21.25;100.00;100272.69;5052398;28;20037;-62
2022/06/25 02:46:11;;;;;;;15.43;6.28;;;;;;;21.38;100.00;100284.44;5066620;28;20032;-62
2022/06/25 02:48:37;;;;;;;14.40;6.68;;;;;;;21.24;100.00;100277.41;5044238;28;20121;-60
2022/06/25 02:51:04;;;;;;;11.90;5.53;;;;;;;21.42;100.00;100283.13;5055862;28;20032;-62
2022/06/25 02:53:32;;;;;;;14.18;6.32;;;;;;;21.58;100.00;100284.22;5051700;28;20499;-60
2022/06/25 02:58:58;;;;;;;9.38;5.03;;;;;;;21.62;100.00;100296.63;5062377;28;20040;-59
2022/06/25 03:01:35;;;;;;;11.95;5.82;;;;;;;20.93;100.00;100289.22;5060227;28;20048;-61
2022/06/25 03:04:00;;;;;;;11.13;5.32;;;;;;;21.01;100.00;100299.59;5058961;28;20094;-61
2022/06/25 03:06:26;;;;;;;11.73;6.13;;;;;;;21.00;100.00;100305.47;5066900;28;20033;-61
2022/06/25 03:08:52;;;;;;;14.02;6.93;;;;;;;21.14;100.00;100299.59;5055646;28;20037;-60
2022/06/25 03:11:19;;;;;;;12.50;6.35;;;;;;;20.79;100.00;100301.34;5063930;28;20037;-61
2022/06/25 03:13:46;;;;;;;11.85;5.95;;;;;;;21.13;100.00;100307.06;5063857;28;20068;-60
2022/06/25 03:16:13;;;;;;;16.10;6.25;;;;;;;21.24;100.00;100307.53;5063647;28;20064;-62
2022/06/25 03:18:39;;;;;;;13.38;6.60;;;;;;;21.24;100.00;100301.28;5049852;28;20371;-61
2022/06/25 03:21:25;;;;;;;12.43;5.22;;;;;;;21.19;100.00;100301.81;5052206;28;20056;-59
2022/06/25 03:23:58;;;;;;;15.27;6.07;;;;;;;21.36;100.00;100306.03;5068732;28;20085;-60
2022/06/25 03:26:24;;;;;;;12.05;6.05;;;;;;;21.39;100.00;100305.91;5052976;28;20112;-62
2022/06/25 03:28:53;;;;;;;11.98;6.18;;;;;;;21.19;100.00;100299.88;5062086;28;20043;-60
2022/06/25 03:31:21;;;;;;;10.32;5.82;;;;;;;21.30;100.00;100303.06;5067758;28;20048;-60
2022/06/25 03:33:48;;;;;;;10.70;4.97;;;;;;;21.26;100.00;100294.16;5054568;28;20037;-59
2022/06/25 03:36:32;;;;;;;11.07;5.72;;;;;;;20.93;100.00;100300.94;5055156;28;20081;-61
2022/06/25 03:39:00;;;;;;;16.30;6.13;;;;;;;20.94;100.00;100307.97;5063266;28;20404;-62
2022/06/25 03:41:32;;;;;;;13.27;6.20;;;;;;;21.06;100.00;100304.53;5060402;28;20052;-63
2022/06/25 03:44:21;;;;;;;9.23;5.10;;;;;;;21.19;100.00;100319.03;5035934;28;20040;-59
2022/06/25 03:46:48;;;;;;;10.05;5.07;;;;;;;21.31;100.00;100317.53;5062088;28;20039;-62
2022/06/25 03:49:15;;;;;;;12.50;6.05;;;;;;;21.30;100.00;100324.19;5068707;28;20029;-58
2022/06/25 03:51:55;;;;;;;12.63;6.33;;;;;;;21.19;100.00;100329.22;5065288;28;20036;-59
2022/06/25 03:54:21;;;;;;;9.98;5.10;;;;;;;21.24;100.00;100317.72;5056939;28;20402;-61
2022/06/25 03:56:47;;;;;;;14.30;5.95;;;;;;;21.33;100.00;100312.38;5051552;28;20049;-58
2022/06/25 03:59:13;;;;;;;11.57;5.32;;;;;;;21.37;100.00;100313.03;5064787;28;20056;-60
2022/06/25 04:01:38;;;;;;;11.30;5.07;;;;;;;21.49;100.00;100315.78;5056727;28;20453;-60
2022/06/25 04:04:05;;;;;;;13.40;6.28;;;;;;;21.68;99.92;100319.53;5055656;28;20025;-62
2022/06/25 04:06:31;;;;;;;17.17;6.47;;;;;;;21.74;99.54;100317.03;5067267;28;20052;-60
2022/06/25 04:09:03;;;;;;;10.70;5.93;;;;;;;21.75;99.66;100316.59;5063805;28;20028;-62
2022/06/25 04:11:30;;;;;;;11.02;5.88;;;;;;;21.80;99.92;100329.75;5059577;28;20060;-58
2022/06/25 04:13:57;;;;;;;14.88;6.55;;;;;;;21.92;99.84;100325.47;5067250;28;20025;-61
2022/06/25 04:16:44;;;;;;;15.18;6.75;;;;;;;22.04;98.99;100324.72;5055657;28;20052;-61
2022/06/25 04:19:12;;;;;;;14.98;6.40;;;;;;;22.04;99.35;100319.22;5020646;28;20049;-61
2022/06/25 04:21:39;;;;;;;13.60;6.30;;;;;;;22.08;99.04;100323.41;4989892;28;20076;-59
2022/06/25 04:24:06;;;;;;;13.68;6.35;;;;;;;22.15;98.75;100317.66;4992030;28;20091;-61
2022/06/25 04:26:31;;;;;;;17.05;7.07;;;;;;;22.19;98.68;100325.78;4991310;28;20026;-61
2022/06/25 04:29:03;;;;;;;14.95;7.00;;;;;;;22.26;98.10;100329.06;4997173;28;20089;-59
2022/06/25 04:31:37;;;;;;;14.30;6.47;;;;;;;22.28;98.36;100332.13;4988672;28;20084;-57
2022/06/25 04:34:05;;;;;;;14.95;7.47;;;;;;;22.27;98.61;100332.56;4975681;28;20027;-61
2022/06/25 04:36:31;;;;;;;13.38;6.72;;;;;;;22.37;98.50;100334.22;4999758;28;20498;-61
2022/06/25 04:39:17;;;;;;;13.43;5.88;;;;;;;22.42;98.07;100326.19;5000159;28;20041;-60
2022/06/25 04:41:45;;;;;;;12.43;6.38;;;;;;;22.39;98.80;100332.56;4990968;28;20518;-58
2022/06/25 04:44:18;;;;;;;12.95;6.28;;;;;;;22.47;98.71;100333.09;4972542;28;20037;-62
2022/06/25 04:46:44;;;;;;;14.50;6.32;;;;;;;22.54;98.47;100338.34;5008836;28;20635;-64
2022/06/25 04:49:10;;;;;;;13.13;6.60;;;;;;;22.56;98.52;100344.16;4988541;28;20406;-63
2022/06/25 04:51:41;;;;;;;11.75;6.25;;;;;;;22.62;99.19;100347.91;4985780;28;20042;-64
2022/06/25 04:54:07;;;;;;;14.30;6.53;;;;;;;22.66;98.63;100354.03;4985608;28;20400;-63
2022/06/25 04:56:38;;;;;;;11.38;5.82;;;;;;;22.73;99.22;100356.53;5039183;28;20119;-64
2022/06/25 04:59:04;;;;;;;15.10;6.65;;;;;;;22.79;98.96;100373.22;5059287;28;20028;-61
2022/06/25 05:01:48;;;;;;;10.98;5.43;;;;;;;22.86;98.75;100367.50;5065609;28;20044;-63
2022/06/25 05:04:14;;;;;;;11.73;6.38;;;;;;;22.88;98.83;100363.06;5066819;28;20044;-57
2022/06/25 05:06:40;;;;;;;15.52;6.82;;;;;;;22.94;98.59;100366.78;5061274;28;20033;-61
2022/06/25 05:09:06;;;;;;;13.98;6.20;;;;;;;23.01;98.10;100374.78;5051851;28;20539;-60
2022/06/25 05:11:32;;;;;;;11.93;6.20;;;;;;;23.13;97.57;100368.44;5058646;28;20033;-60
2022/06/25 05:13:57;;;;;;;12.73;6.03;;;;;;;23.06;97.42;100374.22;5060269;28;20028;-61
2022/06/25 05:16:23;;;;;;;16.08;6.82;;;;;;;22.91;98.06;100377.91;5053835;28;20033;-63
2022/06/25 05:18:51;;;;;;;14.95;7.05;;;;;;;22.79;96.77;100386.94;5063198;28;20131;-59
2022/06/25 05:21:16;;;;;;;14.95;6.40;;;;;;;23.04;97.11;100389.59;5066577;28;20039;-62
2022/06/25 05:23:42;;;;;;;14.27;7.10;;;;;;;23.55;94.15;100396.41;5056427;28;20033;-60
2022/06/25 05:26:08;;;;;;;12.48;6.57;;;;;;;23.91;92.59;100395.81;5059163;28;20477;-59
2022/06/25 05:28:33;;;;;;;13.65;6.78;;;;;;;23.76;92.03;100397.59;5063654;28;20028;-61
2022/06/25 05:30:59;;;;;;;15.25;6.68;;;;;;;23.82;92.42;100401.31;5048230;28;20397;-63
2022/06/25 05:33:25;;;;;;;9.73;5.68;;;;;;;24.13;89.77;100399.31;5056589;28;20075;-60
2022/06/25 05:35:53;;;;;;;11.52;6.07;;;;;;;24.06;90.00;100405.13;5050589;28;20093;-58
2022/06/25 05:38:19;;;;;;;12.85;5.32;;;;;;;24.15;89.86;100402.41;5058043;28;20032;-62
2022/06/25 05:40:44;;;;;;;12.32;6.22;;;;;;;24.45;88.60;100406.31;5053925;28;20547;-59
2022/06/25 05:43:10;;;;;;;13.00;6.50;;;;;;;24.30;87.30;100416.34;5060130;28;20032;-60
2022/06/25 05:45:35;;;;;;;11.73;6.13;;;;;;;24.49;88.79;100426.97;5063322;28;20123;-62
2022/06/25 05:48:01;;;;;;;9.68;5.13;;;;;;;24.93;87.54;100428.28;5065495;28;20041;-59
2022/06/25 05:50:27;;;;;;;11.13;5.03;;;;;;;25.04;86.40;100439.66;5053411;28;20028;-61
2022/06/25 05:52:53;;;;;;;11.77;4.75;;;;;;;25.18;85.07;100443.78;5061976;28;20044;-62
2022/06/25 05:55:19;;;;;;;6.75;3.85;;;;;;;25.43;83.70;100442.72;5053517;28;20021;-62
2022/06/25 05:57:46;;;;;;;7.65;4.00;;;;;;;25.65;81.46;100451.56;5061383;28;20472;-62
2022/06/25 06:00:12;;;;;;;8.38;3.63;;;;;;;25.70;80.05;100453.72;5059336;28;20041;-63
2022/06/25 06:02:38;;;;;;;8.32;4.53;;;;;;;25.82;79.58;100442.50;5053300;28;20039;-62
2022/06/25 06:05:04;;;;;;;5.53;3.05;;;;;;;25.96;79.10;100445.84;5053048;28;20040;-62
2022/06/25 06:07:29;;;;;;;7.40;3.90;;;;;;;26.25;77.79;100459.91;5050353;28;20032;-61
2022/06/25 06:09:55;;;;;;;6.40;3.40;;;;;;;26.44;77.62;100451.03;5058253;28;20059;-62
2022/06/25 06:12:20;;;;;;;6.20;2.70;;;;;;;26.64;77.27;100461.53;5063068;28;20041;-62
2022/06/25 06:14:46;;;;;;;4.75;2.78;;;;;;;26.79;76.10;100456.84;5062865;28;20107;-58
2022/06/25 06:17:11;;;;;;;4.75;2.60;;;;;;;27.05;74.45;100468.97;5062679;28;20028;-61
2022/06/25 06:19:37;;;;;;;4.55;2.33;;;;;;;27.18;74.13;100460.41;5061992;28;20150;-63
2022/06/25 06:22:02;;;;;;;3.08;2.00;;;;;;;27.19;73.86;100457.19;5065009;28;20044;-59
2022/06/25 06:24:28;;;;;;;2.83;1.85;;;;;;;27.38;73.64;100469.66;5054305;28;20110;-58
2022/06/25 06:26:54;;;;;;;3.97;2.08;;;;;;;27.38;73.40;100468.88;5061083;28;20032;-60
2022/06/25 06:29:19;;;;;;;3.40;1.77;;;;;;;27.39;73.40;100468.41;5061360;28;20457;-62
2022/06/25 06:31:45;;;;;;;2.42;1.75;;;;;;;27.50;72.94;100470.63;5066859;28;20533;-62
2022/06/25 06:34:11;;;;;;;3.28;2.03;;;;;;;27.63;71.98;100469.13;5062058;28;20038;-61
2022/06/25 06:36:36;;;;;;;5.72;2.25;;;;;;;27.64;70.29;100480.97;5061948;28;20440;-60
2022/06/25 06:39:02;;;;;;;2.78;1.58;;;;;;;27.49;71.78;100477.41;5068571;28;20131;-61
2022/06/25 06:41:28;;;;;;;2.40;1.58;;;;;;;27.57;71.35;100492.41;5069852;28;20036;-59
2022/06/25 06:43:53;;;;;;;2.50;1.70;;;;;;;27.63;70.70;100491.28;5069117;28;20088;-61
2022/06/25 06:46:19;;;;;;;2.95;1.90;;;;;;;27.85;70.11;100490.91;5063142;28;20025;-62
2022/06/25 06:48:45;;;;;;;2.85;1.70;;;;;;;28.01;68.86;100498.00;5057940;28;20419;-61
2022/06/25 06:51:11;;;;;;;3.25;2.47;;;;;;;27.96;67.75;100491.13;5053633;28;20045;-61
2022/06/25 06:53:37;;;;;;;3.35;1.95;;;;;;;26.73;70.25;100492.66;5063209;28;20421;-62
2022/06/25 06:56:02;;;;;;;2.65;1.63;;;;;;;26.51;71.13;100491.38;5058203;28;20036;-60
2022/06/25 06:58:29;;;;;;;1.40;1.23;;;;;;;26.81;73.61;100492.34;5060566;28;20067;-62
2022/06/25 07:00:55;;;;;;;1.80;1.20;;;;;;;27.33;71.92;100491.69;5054536;28;20390;-61
2022/06/25 07:03:21;;;;;;;1.55;1.13;;;;;;;27.64;69.92;100495.56;5064517;28;20037;-59
2022/06/25 07:05:46;;;;;;;3.15;1.60;;;;;;;27.87;67.68;100498.72;5060021;28;20029;-63
2022/06/25 07:08:21;;;;;;;2.38;1.60;;;;;;;27.74;66.16;100498.25;5058392;28;20111;-63
2022/06/25 07:10:47;;;;;;;2.40;1.10;;;;;;;27.81;67.86;100501.41;5054783;28;20166;-62
2022/06/25 07:13:12;;;;;;;1.75;1.10;;;;;;;27.55;66.64;100505.94;5062992;28;20428;-63
2022/06/25 07:15:39;;;;;;;1.23;0.85;;;;;;;27.66;67.52;100506.91;5052310;28;20052;-63
2022/06/25 07:18:05;;;;;;;1.65;1.35;;;;;;;27.79;65.13;100503.88;5058478;28;20033;-64
2022/06/25 07:20:31;;;;;;;1.42;1.10;;;;;;;28.11;65.72;100513.25;5058400;28;20094;-64
2022/06/25 07:22:56;;;;;;;1.00;0.80;;;;;;;28.23;65.91;100510.22;5056376;28;20619;-64
2022/06/25 07:25:22;;;;;;;0.80;0.80;;;;;;;28.23;63.72;100501.91;5054236;28;20442;-63
2022/06/25 07:27:48;;;;;;;2.15;1.70;;;;;;;28.32;63.16;100496.25;5054431;28;20071;-64
2022/06/25 07:30:14;;;;;;;1.40;1.08;;;;;;;27.83;63.64;100510.00;5058804;28;20060;-64
2022/06/25 07:32:40;;;;;;;1.27;0.95;;;;;;;27.94;63.70;100503.88;5059374;28;20377;-64
2022/06/25 07:35:06;;;;;;;1.70;1.30;;;;;;;28.17;63.42;100505.81;5062943;28;20040;-63
2022/06/25 07:37:31;;;;;;;1.88;1.20;;;;;;;27.85;61.08;100509.53;5058952;28;20127;-63
2022/06/25 07:39:57;;;;;;;2.22;0.95;;;;;;;27.93;65.16;100519.75;5058548;28;20128;-64
2022/06/25 07:42:23;;;;;;;0.88;0.55;;;;;;;28.19;64.88;100514.41;5052945;28;20083;-66
2022/06/25 07:44:49;;;;;;;1.23;1.10;;;;;;;28.51;62.39;100519.72;5059888;28;20028;-64
2022/06/25 07:47:14;;;;;;;1.02;0.90;;;;;;;28.52;60.41;100517.72;5071203;28;20036;-66
2022/06/25 07:52:25;;;;;;;1.63;0.90;;;;;;;28.97;60.29;100510.81;5062507;28;20025;-63
2022/06/25 07:54:51;;;;;;;1.17;0.88;;;;;;;29.15;59.85;100521.69;5053613;28;20031;-63
2022/06/25 07:57:17;;;;;;;1.58;0.95;;;;;;;28.37;59.04;100516.97;5057696;28;20048;-64
2022/06/25 07:59:42;;;;;;;2.90;1.02;;;;;;;29.02;58.77;100512.88;5060499;28;20382;-62
2022/06/25 08:02:08;;;;;;;1.50;1.00;;;;;;;28.74;58.14;100514.53;5063799;28;20432;-64
2022/06/25 08:04:33;;;;;;;1.10;0.90;;;;;;;29.23;58.74;100520.00;5060181;28;20428;-64
2022/06/25 08:06:59;;;;;;;1.40;0.98;;;;;;;28.96;55.82;100517.63;5066826;28;20112;-63
2022/06/25 08:09:24;;;;;;;1.10;1.00;;;;;;;29.04;56.26;100522.25;5060358;28;20123;-63
2022/06/25 08:11:50;;;;;;;1.35;0.90;;;;;;;29.53;57.10;100524.16;5058903;28;20033;-65
2022/06/25 08:14:15;;;;;;;1.58;1.13;;;;;;;29.80;54.99;100523.69;5058314;28;20089;-64
2022/06/25 08:16:41;;;;;;;0.98;0.80;;;;;;;29.82;57.05;100529.53;5065468;28;20071;-64
2022/06/25 08:19:06;;;;;;;1.63;1.00;;;;;;;29.98;54.57;100536.50;5068922;28;20025;-64
2022/06/25 08:21:52;;;;;;;0.70;0.70;;;;;;;29.37;56.00;100536.59;5064261;28;20367;-64
2022/06/25 08:24:18;;;;;;;0.73;0.70;;;;;;;29.48;56.74;100535.19;5006783;28;20069;-64
2022/06/25 08:26:43;;;;;;;1.15;0.80;;;;;;;30.11;55.34;100532.06;4992073;28;20544;-64
2022/06/25 08:29:09;;;;;;;1.13;0.90;;;;;;;30.50;52.43;100532.41;5003384;28;20093;-64
2022/06/25 08:31:35;;;;;;;1.45;0.80;;;;;;;30.76;52.70;100529.56;5004518;28;20054;-63
2022/06/25 08:34:00;;;;;;;1.17;0.93;;;;;;;30.92;52.08;100528.91;5001745;28;20034;-64
2022/06/25 08:36:26;;;;;;;1.33;0.80;;;;;;;31.08;52.73;100520.66;5007098;28;20038;-64
2022/06/25 08:38:51;;;;;;;0.80;0.80;;;;;;;31.20;50.97;100526.25;5003452;28;20464;-64
2022/06/25 08:41:18;;;;;;;0.93;0.73;;;;;;;31.35;50.58;100527.56;5002213;28;20042;-64
2022/06/25 08:43:44;;;;;;;1.15;0.80;;;;;;;31.32;49.73;100522.25;5002757;28;20034;-63
2022/06/25 08:46:09;;;;;;;0.90;0.77;;;;;;;31.36;49.92;100528.34;4998024;28;20506;-65
2022/06/25 08:48:37;;;;;;;0.60;0.60;;;;;;;31.50;50.24;100530.19;4999209;28;20494;-65
2022/06/25 08:51:04;;;;;;;0.90;0.82;;;;;;;31.65;50.28;100527.97;4999672;28;20109;-64
2022/06/25 08:53:34;;;;;;;1.05;0.77;;;;;;;30.60;49.94;100519.06;5001008;28;20033;-65
2022/06/25 08:56:00;;;;;;;3.93;1.00;;;;;;;30.30;51.42;100513.03;5002907;28;20077;-64
2022/06/25 08:58:26;;;;;;;1.40;1.02;;;;;;;30.52;50.79;100521.56;5002434;28;20383;-63
2022/06/25 09:00:52;;;;;;;1.10;1.00;;;;;;;30.67;50.81;100524.16;5023311;28;20103;-64
2022/06/25 09:03:17;;;;;;;1.33;1.08;;;;;;;30.73;53.20;100522.19;5064681;28;20733;-64
2022/06/25 09:05:44;;;;;;;2.08;0.98;;;;;;;30.85;53.71;100532.16;5068381;28;20028;-64
2022/06/25 09:08:12;;;;;;;3.10;0.90;;;;;;;30.86;54.28;100528.09;5068713;28;20051;-65
2022/06/25 09:10:40;;;;;;;1.10;1.00;;;;;;;31.08;54.23;100531.00;5069099;28;20111;-64
2022/06/25 09:13:10;;;;;;;1.15;1.00;;;;;;;30.94;50.97;100527.16;5064090;28;20043;-64
2022/06/25 09:15:39;;;;;;;0.90;0.90;;;;;;;30.85;52.67;100527.38;5055431;28;20027;-64
2022/06/25 09:18:12;;;;;;;1.23;1.00;;;;;;;31.47;52.30;100525.63;5053367;28;20213;-65
2022/06/25 09:21:09;;;;;;;1.38;1.10;;;;;;;31.35;50.80;100532.38;5063407;28;20121;-64
2022/06/25 09:23:54;;;;;;;1.10;0.82;;;;;;;31.89;50.92;100534.59;5053856;28;20032;-62
2022/06/25 09:26:20;;;;;;;0.95;0.88;;;;;;;32.04;49.75;100526.00;5050158;28;20033;-65
2022/06/25 09:28:46;;;;;;;2.05;1.02;;;;;;;31.96;49.75;100538.91;5059238;28;20070;-65
2022/06/25 09:31:32;;;;;;;1.17;1.08;;;;;;;31.81;49.90;100530.75;5068417;28;20331;-65
2022/06/25 09:34:02;;;;;;;0.98;0.88;;;;;;;31.57;49.93;100533.22;5056507;28;20074;-65
2022/06/25 09:36:27;;;;;;;1.40;0.90;;;;;;;30.02;50.68;100526.66;5066288;28;20060;-64
2022/06/25 09:38:53;;;;;;;0.93;0.77;;;;;;;30.27;53.74;100530.69;5062036;28;20072;-65
2022/06/25 09:41:22;;;;;;;1.55;1.10;;;;;;;30.12;52.21;100518.94;5062290;28;20505;-64
2022/06/25 09:43:47;;;;;;;1.30;1.00;;;;;;;30.55;52.46;100512.22;5062492;28;20033;-63
2022/06/25 09:46:13;;;;;;;1.27;1.02;;;;;;;30.73;51.20;100519.41;5065408;28;20044;-63
2022/06/25 09:48:41;;;;;;;0.80;0.80;;;;;;;30.72;51.68;100517.91;5060728;28;20033;-64
2022/06/25 09:51:10;;;;;;;1.45;1.00;;;;;;;30.94;52.20;100515.25;5065692;28;20061;-64
2022/06/25 09:53:52;;;;;;;0.93;0.80;;;;;;;31.34;49.42;100514.91;5068362;28;20448;-63
2022/06/25 09:56:22;;;;;;;1.15;1.05;;;;;;;31.79;49.36;100513.78;5058873;28;20127;-61
2022/06/25 09:58:48;;;;;;;0.85;0.80;;;;;;;32.15;49.49;100508.53;5054243;28;20063;-63
2022/06/25 10:01:16;;;;;;;1.25;0.75;;;;;;;32.40;50.00;100518.66;5053937;28;20032;-64
2022/06/25 10:03:43;;;;;;;0.90;0.90;;;;;;;32.32;47.73;100528.78;5054957;28;20089;-64
2022/06/25 10:06:09;;;;;;;0.80;0.80;;;;;;;32.17;47.18;100522.72;5063926;28;20043;-63
2022/06/25 10:08:35;;;;;;;1.25;0.90;;;;;;;32.01;47.84;100521.44;5049876;28;20044;-64
2022/06/25 10:11:03;;;;;;;0.90;0.88;;;;;;;31.79;48.29;100527.72;5057212;28;20028;-62
2022/06/25 10:13:29;;;;;;;1.17;0.95;;;;;;;31.67;47.54;100530.97;5053305;28;20060;-63
2022/06/25 10:15:56;;;;;;;1.17;0.82;;;;;;;31.53;48.83;100526.41;5070538;28;20028;-67
2022/06/25 10:18:22;;;;;;;0.93;0.88;;;;;;;31.21;50.53;100517.41;5070409;28;20116;-63
2022/06/25 10:20:48;;;;;;;1.45;1.27;;;;;;;31.17;50.28;100516.88;5068723;28;20107;-63
2022/06/25 10:23:15;;;;;;;1.20;0.95;;;;;;;31.06;50.92;100512.03;5066437;28;20418;-62
2022/06/25 10:25:42;;;;;;;1.60;1.00;;;;;;;30.96;51.60;100513.50;5061381;28;20435;-64
2022/06/25 10:28:09;;;;;;;1.10;1.00;;;;;;;30.90;51.75;100514.72;5052526;28;20060;-63
2022/06/25 10:30:35;;;;;;;1.08;0.93;;;;;;;30.97;51.13;100508.69;5055429;28;20032;-64
2022/06/25 10:33:01;;;;;;;1.02;0.93;;;;;;;31.35;51.29;100516.44;5055166;28;20045;-64
2022/06/25 10:35:35;;;;;;;1.13;0.90;;;;;;;31.93;50.75;100520.41;5057338;28;20021;-64
2022/06/25 10:38:06;;;;;;;1.20;0.98;;;;;;;32.30;49.83;100511.81;5053605;28;20120;-64
2022/06/25 10:40:44;;;;;;;1.95;0.80;;;;;;;32.67;48.98;100515.84;5062876;28;20067;-63
2022/06/25 10:43:37;;;;;;;1.27;1.00;;;;;;;33.03;49.07;100518.78;5081764;28;20048;-63
2022/06/25 10:46:22;;;;;;;1.20;0.90;;;;;;;33.42;47.40;100508.22;5064717;28;20549;-63
2022/06/25 10:48:58;;;;;;;0.85;0.82;;;;;;;33.60;47.14;100510.44;5063586;28;20036;-64
2022/06/25 10:51:28;;;;;;;1.23;0.95;;;;;;;33.59;45.91;100504.06;5056481;28;20154;-64
2022/06/25 10:53:54;;;;;;;1.45;0.90;;;;;;;33.46;45.78;100503.13;5056416;28;20040;-63
2022/06/25 10:56:20;;;;;;;1.10;0.77;;;;;;;33.47;45.37;100497.03;5057667;28;20024;-63
2022/06/25 10:58:47;;;;;;;0.80;0.80;;;;;;;33.49;44.75;100494.47;5051340;28;20425;-64
2022/06/25 11:01:22;;;;;;;0.70;0.70;;;;;;;33.29;45.17;100496.84;5053744;28;20163;-62
2022/06/25 11:03:52;;;;;;;0.73;0.50;;;;;;;33.00;45.24;100505.88;5061858;28;20032;-64
2022/06/25 11:06:29;;;;;;;0.87;0.87;;;;;;;32.73;45.97;100505.41;5064726;28;20032;-64
2022/06/25 11:09:03;;;;;;;0.50;0.50;;;;;;;32.38;46.64;100507.25;5056287;28;20298;-64
2022/06/25 11:11:31;;;;;;;0.93;0.85;;;;;;;32.10;45.84;100512.06;5057194;28;20028;-62
2022/06/25 11:13:59;;;;;;;0.75;0.52;;;;;;;32.09;46.25;100502.19;5060121;28;20040;-63
2022/06/25 11:16:26;;;;;;;1.15;0.60;;;;;;;32.03;44.91;100501.41;5057133;28;20029;-63
2022/06/25 11:18:54;;;;;;;0.40;0.40;;;;;;;32.65;44.61;100512.03;5065781;28;20029;-62
2022/06/25 11:21:36;;;;;;;0.60;0.57;;;;;;;33.09;43.10;100500.75;5068593;28;20036;-62
2022/06/25 11:24:21;;;;;;;0.75;0.52;;;;;;;33.44;42.49;100503.63;5067311;28;20051;-61
2022/06/25 11:29:57;;;;;;;0.63;0.63;;;;;;;33.63;39.56;100498.97;5062025;28;20055;-63
2022/06/25 11:32:28;;;;;;;0.70;0.70;;;;;;;33.50;40.55;100504.41;5064788;28;20408;-61
2022/06/25 11:34:56;;;;;;;0.52;0.52;;;;;;;33.57;41.71;100506.63;5060017;28;20124;-62
2022/06/25 11:37:23;;;;;;;0.73;0.60;;;;;;;33.38;42.31;100504.94;5066136;28;20106;-62
2022/06/25 11:39:50;;;;;;;0.70;0.50;;;;;;;33.03;42.14;100513.97;5068296;28;20507;-60